createdAt,value
2022-12-15T00:01:47.434Z,25.42
2022-12-15T00:04:32.980Z,26.10
2022-12-15T00:07:18.505Z,27.50
2022-12-15T00:10:03.887Z,20.35
2022-12-15T00:12:49.163Z,14.88
2022-12-15T00:15:35.300Z,17.60
2022-12-15T00:18:26.767Z,12.30
2022-12-15T00:21:16.785Z,13.13
2022-12-15T00:24:02.173Z,16.05
2022-12-15T00:26:47.481Z,15.23
2022-12-15T00:29:32.759Z,12.65
2022-12-15T00:32:18.051Z,13.68
2022-12-15T00:35:03.577Z,15.90
2022-12-15T00:37:49.251Z,15.73
2022-12-15T00:40:16.088Z,14.68
2022-12-15T00:42:42.893Z,13.05
2022-12-15T00:45:10.295Z,14.30
2022-12-15T00:47:37.324Z,15.90
2022-12-15T00:50:23.294Z,15.98
2022-12-15T00:53:10.331Z,16.48
2022-12-15T00:55:55.861Z,15.82
2022-12-15T00:58:41.454Z,19.13
2022-12-15T01:01:28.620Z,14.75
2022-12-15T01:04:14.525Z,14.88
2022-12-15T01:07:00.434Z,14.80
2022-12-15T01:09:45.753Z,14.15
2022-12-15T01:12:30.942Z,20.13
2022-12-15T01:15:16.311Z,19.90
2022-12-15T01:18:01.608Z,21.10
2022-12-15T01:20:32.602Z,20.52
2022-12-15T01:22:59.496Z,15.77
2022-12-15T01:25:27.491Z,19.08
2022-12-15T01:27:54.513Z,20.95
2022-12-15T01:30:31.664Z,21.35
2022-12-15T01:32:58.384Z,23.98
2022-12-15T01:35:27.656Z,20.35
2022-12-15T01:37:54.416Z,22.13
2022-12-15T01:40:40.029Z,20.85
2022-12-15T01:43:13.767Z,20.60
2022-12-15T01:45:51.913Z,20.55
2022-12-15T01:48:50.869Z,17.40
2022-12-15T01:51:32.702Z,18.80
2022-12-15T01:54:14.822Z,20.67
2022-12-15T01:56:45.836Z,20.92
2022-12-15T01:59:17.016Z,18.25
2022-12-15T02:01:43.889Z,19.95
2022-12-15T02:04:19.540Z,32.00
2022-12-15T02:06:46.360Z,26.13
2022-12-15T02:09:13.501Z,32.58
2022-12-15T02:11:43.472Z,28.00
2022-12-15T02:14:12.040Z,31.75
2022-12-15T02:16:58.122Z,28.42
2022-12-15T02:19:53.482Z,24.90
2022-12-15T02:22:52.395Z,24.23
2022-12-15T02:25:57.141Z,23.17
2022-12-15T02:28:48.517Z,20.40
2022-12-15T02:31:35.667Z,18.92
2022-12-15T02:34:38.577Z,25.92
2022-12-15T02:37:10.278Z,43.08
2022-12-15T02:39:37.126Z,45.47
2022-12-15T02:42:04.030Z,42.70
2022-12-15T02:44:43.553Z,46.30
2022-12-15T02:47:18.770Z,39.00
2022-12-15T02:50:13.355Z,34.78
2022-12-15T02:52:58.625Z,31.08
2022-12-15T02:56:10.767Z,33.65
2022-12-15T02:59:02.907Z,29.33
2022-12-15T03:01:40.055Z,24.67
2022-12-15T03:04:12.029Z,23.20
2022-12-15T03:06:39.518Z,20.35
2022-12-15T03:09:06.183Z,22.63
2022-12-15T03:11:33.289Z,20.50
2022-12-15T03:14:00.153Z,22.02
2022-12-15T03:16:26.974Z,16.60
2022-12-15T03:18:53.945Z,18.58
2022-12-15T03:21:20.720Z,19.85
2022-12-15T03:23:47.441Z,25.23
2022-12-15T03:26:14.201Z,21.27
2022-12-15T03:28:40.971Z,17.83
2022-12-15T03:31:07.684Z,19.58
2022-12-15T03:33:40.990Z,21.17
2022-12-15T03:36:08.173Z,19.42
2022-12-15T03:38:34.933Z,24.02
2022-12-15T03:41:01.754Z,17.92
2022-12-15T03:43:28.939Z,18.67
2022-12-15T03:45:55.969Z,17.48
2022-12-15T03:48:22.739Z,17.35
2022-12-15T03:50:50.204Z,16.35
2022-12-15T03:53:17.357Z,16.40
2022-12-15T03:55:44.118Z,17.63
2022-12-15T03:58:10.912Z,20.45
2022-12-15T04:00:39.290Z,22.13
2022-12-15T04:03:06.270Z,23.02
2022-12-15T04:05:34.745Z,19.15
2022-12-15T04:08:02.013Z,21.15
2022-12-15T04:10:34.516Z,18.13
2022-12-15T04:13:07.058Z,16.27
2022-12-15T04:15:36.753Z,19.15
2022-12-15T04:18:05.667Z,15.10
2022-12-15T04:20:33.161Z,17.83
2022-12-15T04:23:00.583Z,21.67
2022-12-15T04:25:52.556Z,20.00
2022-12-15T04:28:38.283Z,19.80
2022-12-15T04:31:29.226Z,20.50
2022-12-15T04:34:19.192Z,19.23
2022-12-15T04:37:08.034Z,17.40
2022-12-15T04:39:55.906Z,17.70
2022-12-15T04:42:41.354Z,20.70
2022-12-15T04:45:28.073Z,20.67
2022-12-15T04:48:20.994Z,17.98
2022-12-15T04:51:06.494Z,21.88
2022-12-15T04:53:52.116Z,22.50
2022-12-15T04:56:37.512Z,25.30
2022-12-15T04:59:23.273Z,22.98
2022-12-15T05:02:09.157Z,21.10
2022-12-15T05:04:54.618Z,20.25
2022-12-15T05:07:46.587Z,19.10
2022-12-15T05:10:32.121Z,20.23
2022-12-15T05:13:32.453Z,18.98
2022-12-15T05:16:17.961Z,27.85
2022-12-15T05:19:03.293Z,23.88
2022-12-15T05:21:48.620Z,31.98
2022-12-15T05:24:34.218Z,34.60
2022-12-15T05:27:19.652Z,30.38
2022-12-15T05:30:04.978Z,28.23
2022-12-15T05:32:33.238Z,27.90
2022-12-15T05:35:01.307Z,29.63
2022-12-15T05:37:28.090Z,36.22
2022-12-15T05:39:54.897Z,31.67
2022-12-15T05:42:21.814Z,30.17
2022-12-15T05:44:48.888Z,28.00
2022-12-15T05:47:16.644Z,22.42
2022-12-15T05:49:43.562Z,25.73
2022-12-15T05:52:10.262Z,23.40
2022-12-15T05:54:37.109Z,25.05
2022-12-15T05:57:10.575Z,23.48
2022-12-15T05:59:41.199Z,22.85
2022-12-15T06:02:08.117Z,21.45
2022-12-15T06:04:34.930Z,34.10
2022-12-15T06:07:01.868Z,39.83
2022-12-15T06:09:31.426Z,36.67
2022-12-15T06:11:58.289Z,31.88
2022-12-15T06:14:25.029Z,36.80
2022-12-15T06:16:51.918Z,34.30
2022-12-15T06:19:19.456Z,29.33
2022-12-15T06:21:46.233Z,26.98
2022-12-15T06:24:19.315Z,27.02
2022-12-15T06:26:52.779Z,26.45
2022-12-15T06:29:19.563Z,21.23
2022-12-15T06:31:46.843Z,29.55
2022-12-15T06:34:16.434Z,27.25
2022-12-15T06:36:44.240Z,26.92
2022-12-15T06:39:15.842Z,25.38
2022-12-15T06:41:43.381Z,25.85
2022-12-15T06:44:14.255Z,23.77
2022-12-15T06:46:41.456Z,22.33
2022-12-15T06:49:09.089Z,23.52
2022-12-15T06:51:37.802Z,22.63
2022-12-15T06:54:04.792Z,24.02
2022-12-15T06:56:38.782Z,26.98
2022-12-15T06:59:07.394Z,28.15
2022-12-15T07:01:34.553Z,24.60
2022-12-15T07:04:06.198Z,27.98
2022-12-15T07:06:37.844Z,30.75
2022-12-15T07:09:07.900Z,27.20
2022-12-15T07:11:35.191Z,24.80
2022-12-15T07:14:02.076Z,21.73
2022-12-15T07:16:28.836Z,27.17
2022-12-15T07:18:55.721Z,27.48
2022-12-15T07:21:22.466Z,24.92
2022-12-15T07:23:57.483Z,24.65
2022-12-15T07:26:25.008Z,30.30
2022-12-15T07:29:05.172Z,27.83
2022-12-15T07:31:39.012Z,31.38
2022-12-15T07:34:07.172Z,32.10
2022-12-15T07:36:34.856Z,32.50
2022-12-15T07:39:04.876Z,31.55
2022-12-15T07:41:38.253Z,25.92
2022-12-15T07:44:06.201Z,25.08
2022-12-15T07:46:33.056Z,26.70
2022-12-15T07:49:00.078Z,22.70
2022-12-15T07:51:27.675Z,19.98
2022-12-15T07:53:54.853Z,23.67
2022-12-15T07:56:21.736Z,19.92
2022-12-15T07:58:48.716Z,21.25
2022-12-15T08:01:16.270Z,24.27
2022-12-15T08:03:43.561Z,20.67
2022-12-15T08:06:20.345Z,25.40
2022-12-15T08:08:53.930Z,20.33
2022-12-15T08:11:22.668Z,17.83
2022-12-15T08:14:02.538Z,17.67
2022-12-15T08:16:30.801Z,18.45
2022-12-15T08:18:58.800Z,17.65
2022-12-15T08:21:25.700Z,19.92
2022-12-15T08:23:52.634Z,24.73
2022-12-15T08:26:22.605Z,22.90
2022-12-15T08:28:53.983Z,21.27
2022-12-15T08:31:38.304Z,24.92
2022-12-15T08:34:12.994Z,27.40
2022-12-15T08:36:40.046Z,22.05
2022-12-15T08:39:06.795Z,25.25
2022-12-15T08:41:33.664Z,24.45
2022-12-15T08:44:01.479Z,24.55
2022-12-15T08:46:30.847Z,33.22
2022-12-15T08:48:58.347Z,30.85
2022-12-15T08:51:28.093Z,26.58
2022-12-15T08:53:56.045Z,30.60
2022-12-15T08:56:24.099Z,39.40
2022-12-15T08:58:55.787Z,35.67
2022-12-15T09:01:24.879Z,42.90
2022-12-15T09:03:53.859Z,40.17
2022-12-15T09:06:30.742Z,39.55
2022-12-15T09:08:59.817Z,34.80
2022-12-15T09:11:28.539Z,31.20
2022-12-15T09:13:56.067Z,29.05
2022-12-15T09:16:23.526Z,26.98
2022-12-15T09:18:52.785Z,25.15
2022-12-15T09:21:23.016Z,29.65
2022-12-15T09:23:51.972Z,28.15
2022-12-15T09:26:21.109Z,31.48
2022-12-15T09:28:50.140Z,30.85
2022-12-15T09:31:21.706Z,31.05
2022-12-15T09:34:04.458Z,30.42
2022-12-15T09:36:32.888Z,23.30
2022-12-15T09:39:01.929Z,27.65
2022-12-15T09:41:32.436Z,31.85
2022-12-15T09:43:59.260Z,29.15
2022-12-15T09:46:44.828Z,30.85
2022-12-15T09:49:50.666Z,24.70
2022-12-15T09:52:22.882Z,23.42
2022-12-15T09:54:49.906Z,23.92
2022-12-15T09:57:29.966Z,25.45
2022-12-15T10:00:04.924Z,28.88
2022-12-15T10:03:02.314Z,25.27
2022-12-15T10:06:21.472Z,30.17
2022-12-15T10:08:40.882Z,30.10
2022-12-15T10:11:17.308Z,29.95
2022-12-15T10:13:50.717Z,34.33
2022-12-15T10:16:29.488Z,33.72
2022-12-15T10:19:13.411Z,29.05
2022-12-15T10:21:40.743Z,24.88
2022-12-15T10:24:37.501Z,32.22
2022-12-15T10:27:08.257Z,29.00
2022-12-15T10:29:45.430Z,27.55
2022-12-15T10:32:27.034Z,25.83
2022-12-15T10:34:53.869Z,28.40
2022-12-15T10:37:21.726Z,31.63
2022-12-15T10:39:50.466Z,28.50
2022-12-15T10:42:23.290Z,24.60
2022-12-15T10:45:01.544Z,27.75
2022-12-15T10:47:36.595Z,25.67
2022-12-15T10:50:25.139Z,25.75
2022-12-15T10:52:52.224Z,25.02
2022-12-15T10:55:42.119Z,34.60
2022-12-15T10:58:21.482Z,34.22
2022-12-15T11:01:04.681Z,31.23
2022-12-15T11:03:39.791Z,27.63
2022-12-15T11:06:22.134Z,30.02
2022-12-15T11:08:53.070Z,32.03
2022-12-15T11:11:52.087Z,27.20
2022-12-15T11:14:24.176Z,25.75
2022-12-15T11:16:56.488Z,23.17
2022-12-15T11:19:36.154Z,23.50
2022-12-15T11:22:20.290Z,27.27
2022-12-15T11:24:57.052Z,31.67
2022-12-15T11:27:33.717Z,21.92
2022-12-15T11:30:18.942Z,27.00
2022-12-15T11:33:03.976Z,29.48
2022-12-15T11:39:04.634Z,21.05
2022-12-15T11:41:56.415Z,19.63
2022-12-15T11:44:59.704Z,27.20
2022-12-15T11:47:33.365Z,24.35
2022-12-15T11:50:37.236Z,27.93
2022-12-15T11:53:29.407Z,30.48
2022-12-15T11:56:21.500Z,38.22
2022-12-15T11:59:01.454Z,37.75
2022-12-15T12:01:28.845Z,33.33
2022-12-15T12:04:28.619Z,27.67
2022-12-15T12:07:09.348Z,25.38
2022-12-15T12:10:00.904Z,25.38
2022-12-15T12:12:58.766Z,23.23
2022-12-15T12:15:37.797Z,28.15
2022-12-15T12:18:23.063Z,27.08
2022-12-15T12:20:58.704Z,27.33
2022-12-15T12:23:31.393Z,24.98
2022-12-15T12:26:13.301Z,19.38
2022-12-15T12:28:41.925Z,20.38
2022-12-15T12:31:36.713Z,21.08
2022-12-15T12:34:22.812Z,19.83
2022-12-15T12:36:50.643Z,17.50
2022-12-15T12:39:21.531Z,19.52
2022-12-15T12:42:26.506Z,22.55
2022-12-15T12:44:53.498Z,19.80
2022-12-15T12:47:44.665Z,18.50
2022-12-15T12:50:25.240Z,23.20
2022-12-15T12:53:02.082Z,21.00
2022-12-15T12:55:37.984Z,21.35
2022-12-15T12:58:32.526Z,22.90
2022-12-15T13:01:11.261Z,19.33
2022-12-15T13:03:43.405Z,37.47
2022-12-15T13:06:42.274Z,32.63
2022-12-15T13:09:39.386Z,34.22
2022-12-15T13:12:53.203Z,28.20
2022-12-15T13:15:45.706Z,21.25
2022-12-15T13:18:21.106Z,23.13
2022-12-15T13:21:03.756Z,20.33
2022-12-15T13:23:41.503Z,24.00
2022-12-15T13:26:08.391Z,22.13
2022-12-15T13:28:39.062Z,21.80
2022-12-15T13:31:21.144Z,20.52
2022-12-15T13:33:51.276Z,26.60
2022-12-15T13:36:40.041Z,26.35
2022-12-15T13:39:13.002Z,19.95
2022-12-15T13:42:15.694Z,21.73
2022-12-15T13:44:44.343Z,17.98
2022-12-15T13:47:27.979Z,22.45
2022-12-15T13:50:28.223Z,21.17
2022-12-15T13:53:18.446Z,22.23
2022-12-15T13:56:05.577Z,21.33
2022-12-15T13:58:40.874Z,24.90
2022-12-15T14:01:31.691Z,26.65
2022-12-15T14:04:16.231Z,23.70
2022-12-15T14:06:50.842Z,24.55
2022-12-15T14:09:47.170Z,26.02
2022-12-15T14:12:15.976Z,24.58
2022-12-15T14:14:48.937Z,22.63
2022-12-15T14:17:18.009Z,23.85
2022-12-15T14:19:51.046Z,21.23
2022-12-15T14:22:27.530Z,24.98
2022-12-15T14:25:21.841Z,22.13
2022-12-15T14:27:50.943Z,20.10
2022-12-15T14:30:37.314Z,24.70
2022-12-15T14:33:11.661Z,28.98
2022-12-15T14:35:50.138Z,26.13
2022-12-15T14:38:21.705Z,27.08
2022-12-15T14:40:50.830Z,29.40
2022-12-15T14:43:24.436Z,24.10
2022-12-15T14:45:55.471Z,22.08
2022-12-15T14:48:42.950Z,17.98
2022-12-15T14:51:17.405Z,21.80
2022-12-15T14:53:53.179Z,18.15
2022-12-15T14:56:25.782Z,19.23
2022-12-15T14:59:20.137Z,21.95
2022-12-15T15:02:13.886Z,19.58
2022-12-15T15:04:41.577Z,18.50
2022-12-15T15:07:17.724Z,17.15
2022-12-15T15:09:46.411Z,17.20
2022-12-15T15:12:22.416Z,18.58
2022-12-15T15:15:00.320Z,16.02
2022-12-15T15:17:36.977Z,17.67
2022-12-15T15:20:15.396Z,18.80
2022-12-15T15:22:45.347Z,18.15
2022-12-15T15:25:30.819Z,21.17
2022-12-15T15:28:11.540Z,18.33
2022-12-15T15:30:57.443Z,16.95
2022-12-15T15:33:25.331Z,20.48
2022-12-15T15:36:02.911Z,22.42
2022-12-15T15:38:35.964Z,20.92
2022-12-15T15:41:18.968Z,18.38
2022-12-15T15:43:46.688Z,22.73
2022-12-15T15:46:20.785Z,24.17
2022-12-15T15:49:05.938Z,18.52
2022-12-15T15:51:37.695Z,26.02
2022-12-15T15:54:08.213Z,21.05
2022-12-15T15:56:35.046Z,22.95
2022-12-15T15:59:13.672Z,21.23
2022-12-15T16:01:46.509Z,18.05
2022-12-15T16:04:13.473Z,20.30
2022-12-15T16:06:46.689Z,22.45
2022-12-15T16:09:15.625Z,22.60
2022-12-15T16:11:43.221Z,28.15
2022-12-15T16:14:18.450Z,26.80
2022-12-15T16:16:45.639Z,24.63
2022-12-15T16:19:12.442Z,21.88
2022-12-15T16:21:40.554Z,23.20
2022-12-15T16:24:15.611Z,23.73
2022-12-15T16:26:47.774Z,20.42
2022-12-15T16:29:16.568Z,22.25
2022-12-15T16:31:46.492Z,18.65
2022-12-15T16:34:16.702Z,18.80
2022-12-15T16:36:54.142Z,17.60
2022-12-15T16:39:30.803Z,19.02
2022-12-15T16:41:57.909Z,18.40
2022-12-15T16:44:29.519Z,27.20
2022-12-15T16:46:57.197Z,27.90
2022-12-15T16:49:24.361Z,26.42
2022-12-15T16:51:53.586Z,23.13
2022-12-15T16:54:28.903Z,21.55
2022-12-15T16:56:57.744Z,22.02
2022-12-15T16:59:33.617Z,23.25
2022-12-15T17:02:01.958Z,26.15
2022-12-15T17:04:29.242Z,24.83
2022-12-15T17:06:56.023Z,24.73
2022-12-15T17:09:25.473Z,22.67
2022-12-15T17:11:52.754Z,23.15
2022-12-15T17:14:19.482Z,24.27
2022-12-15T17:16:46.241Z,26.17
2022-12-15T17:19:19.210Z,29.65
2022-12-15T17:24:18.020Z,24.45
2022-12-15T17:26:45.069Z,20.75
2022-12-15T17:29:19.005Z,23.67
2022-12-15T17:31:46.073Z,26.27
2022-12-15T17:34:32.715Z,22.20
2022-12-15T17:37:02.281Z,24.13
2022-12-15T17:39:30.286Z,24.35
2022-12-15T17:42:00.428Z,22.35
2022-12-15T17:44:34.468Z,23.50
2022-12-15T17:47:05.403Z,19.67
2022-12-15T17:49:35.917Z,20.70
2022-12-15T17:52:24.075Z,21.77
2022-12-15T17:54:52.108Z,24.75
2022-12-15T17:57:18.938Z,25.63
2022-12-15T17:59:45.840Z,25.90
2022-12-15T18:02:14.237Z,25.15
2022-12-15T18:04:41.738Z,23.13
2022-12-15T18:07:20.826Z,21.65
2022-12-15T18:09:49.022Z,21.00
2022-12-15T18:12:22.362Z,21.45
2022-12-15T18:14:50.000Z,21.73
2022-12-15T18:17:16.948Z,20.27
2022-12-15T18:19:43.903Z,23.20
2022-12-15T18:22:22.808Z,20.33
2022-12-15T18:24:51.635Z,19.50
2022-12-15T18:27:26.532Z,18.40
2022-12-15T18:29:53.922Z,19.85
2022-12-15T18:32:25.531Z,20.13
2022-12-15T18:34:53.626Z,26.13
2022-12-15T18:37:22.891Z,20.50
2022-12-15T18:39:50.784Z,23.58
2022-12-15T18:42:20.327Z,28.65
2022-12-15T18:44:49.921Z,28.95
2022-12-15T18:47:22.338Z,26.08
2022-12-15T18:49:49.375Z,33.33
2022-12-15T18:52:26.504Z,26.23
2022-12-15T18:54:55.663Z,27.23
2022-12-15T18:57:35.805Z,27.98
2022-12-15T19:00:07.857Z,28.25
2022-12-15T19:02:34.711Z,25.17
2022-12-15T19:05:01.578Z,23.05
2022-12-15T19:07:28.390Z,23.75
2022-12-15T19:09:55.400Z,19.98
2022-12-15T19:12:22.284Z,18.58
2022-12-15T19:14:51.419Z,17.45
2022-12-15T19:17:41.773Z,17.63
2022-12-15T19:20:39.282Z,18.40
2022-12-15T19:23:07.053Z,22.00
2022-12-15T19:25:35.120Z,27.70
2022-12-15T19:28:02.229Z,25.50
2022-12-15T19:30:33.157Z,27.35
2022-12-15T19:33:01.728Z,23.48
2022-12-15T19:35:29.218Z,22.38
2022-12-15T19:37:58.006Z,19.05
2022-12-15T19:40:32.646Z,17.40
2022-12-15T19:45:30.172Z,13.90
2022-12-15T19:47:57.952Z,15.88
2022-12-15T19:50:36.604Z,14.75
2022-12-15T19:53:25.456Z,19.17
2022-12-15T19:55:55.428Z,14.98
2022-12-15T19:58:33.766Z,14.02
2022-12-15T20:01:04.430Z,13.85
2022-12-15T20:03:32.525Z,15.90
2022-12-15T20:06:01.942Z,18.40
2022-12-15T20:08:34.347Z,18.08
2022-12-15T20:11:01.316Z,18.42
2022-12-15T20:13:38.390Z,19.52
2022-12-15T20:16:05.348Z,16.58
2022-12-15T20:18:32.519Z,18.58
2022-12-15T20:20:59.703Z,19.75
2022-12-15T20:23:26.806Z,21.27
2022-12-15T20:25:56.421Z,19.42
2022-12-15T20:28:26.201Z,19.67
2022-12-15T20:30:53.664Z,18.73
2022-12-15T20:33:20.637Z,17.08
2022-12-15T20:35:48.955Z,15.57
2022-12-15T20:38:27.789Z,16.45
2022-12-15T20:40:55.245Z,17.35
2022-12-15T20:43:23.641Z,14.88
2022-12-15T20:46:00.240Z,16.58
2022-12-15T20:48:27.124Z,17.08
2022-12-15T20:50:53.926Z,17.40
2022-12-15T20:53:23.977Z,20.60
2022-12-15T20:55:52.812Z,15.40
2022-12-15T20:58:20.481Z,14.25
2022-12-15T21:00:48.703Z,14.50
2022-12-15T21:03:27.715Z,17.23
2022-12-15T21:05:56.366Z,22.33
2022-12-15T21:08:27.101Z,18.08
2022-12-15T21:10:55.903Z,17.25
2022-12-15T21:13:26.404Z,14.50
2022-12-15T21:15:53.950Z,12.60
2022-12-15T21:18:57.621Z,12.05
2022-12-15T21:21:20.774Z,9.57
2022-12-15T21:23:47.748Z,11.63
2022-12-15T21:26:29.560Z,13.25
2022-12-15T21:29:01.813Z,12.82
2022-12-15T21:31:28.647Z,15.50
2022-12-15T21:33:55.459Z,15.48
2022-12-15T21:36:22.414Z,14.02
2022-12-15T21:38:50.872Z,13.88
2022-12-15T21:41:22.100Z,14.20
2022-12-15T21:43:49.793Z,13.60
2022-12-15T21:46:27.546Z,9.82
2022-12-15T21:49:14.316Z,9.60
2022-12-15T21:51:57.926Z,8.75
2022-12-15T21:54:32.452Z,7.15
2022-12-15T21:59:29.666Z,7.00
2022-12-15T22:01:57.174Z,5.55
2022-12-15T22:04:30.330Z,3.95
2022-12-15T22:06:58.537Z,4.40
2022-12-15T22:09:25.469Z,5.63
2022-12-15T22:11:54.074Z,5.03
2022-12-15T22:14:32.995Z,3.97
2022-12-15T22:17:17.086Z,6.15
2022-12-15T22:19:43.953Z,5.60
2022-12-15T22:22:11.477Z,6.85
2022-12-15T22:24:38.500Z,6.88
2022-12-15T22:27:23.094Z,8.20
2022-12-15T22:29:50.350Z,7.38
2022-12-15T22:32:20.854Z,7.22
2022-12-15T22:34:48.527Z,7.45
2022-12-15T22:37:28.663Z,7.03
2022-12-15T22:39:55.405Z,6.60
2022-12-15T22:42:22.172Z,5.60
2022-12-15T22:44:49.005Z,6.47
2022-12-15T22:47:15.833Z,6.95
2022-12-15T22:49:42.943Z,8.02
2022-12-15T22:52:17.381Z,7.65
2022-12-15T22:57:25.925Z,6.80
2022-12-15T23:00:11.557Z,7.32
2022-12-15T23:02:41.660Z,6.10
2022-12-15T23:05:09.412Z,5.07
2022-12-15T23:07:36.292Z,5.88
2022-12-15T23:10:22.593Z,7.07
2022-12-15T23:12:54.291Z,8.15
2022-12-15T23:15:41.530Z,7.80
2022-12-15T23:18:08.598Z,8.95
2022-12-15T23:20:35.647Z,10.00
2022-12-15T23:23:09.758Z,8.98
2022-12-15T23:25:44.001Z,8.68
2022-12-15T23:28:10.773Z,5.50
2022-12-15T23:30:37.493Z,8.02
2022-12-15T23:33:04.421Z,7.90
2022-12-15T23:35:31.395Z,6.78
2022-12-15T23:37:58.766Z,5.63
2022-12-15T23:40:25.781Z,5.43
2022-12-15T23:42:53.608Z,4.85
2022-12-15T23:45:20.829Z,5.13
2022-12-15T23:47:47.690Z,4.72
2022-12-15T23:50:14.819Z,5.70
2022-12-15T23:52:41.742Z,5.60
2022-12-15T23:55:11.486Z,4.75
2022-12-15T23:57:39.326Z,5.70
